Time;durP1;ratioP1;P1;durP2;ratioP2;P2;SDS_P1;SDS_P2;PMS_P1;PMS_P2;Temp;Humidity;BMP_temperature;BMP_pressure;BME280_temperature;BME280_humidity;BME280_pressure;Samples;Min_cycle;Max_cycle;Signal;HPM_P1;HPM_P2
2021/03/02 00:02:18;;;;;;;17.52;11.10;;;;;;;5.16;82.05;101957.34;5121537;28;20064;-83
2021/03/02 00:04:45;;;;;;;17.95;11.23;;;;;;;5.14;82.78;101956.44;5132825;28;20032;-84
2021/03/02 00:07:13;;;;;;;17.73;10.95;;;;;;;5.13;82.94;101959.06;5139111;28;20040;-84
2021/03/02 00:09:41;;;;;;;18.38;11.73;;;;;;;5.09;82.88;101955.56;5094447;28;20052;-84
2021/03/02 00:12:25;;;;;;;18.48;11.80;;;;;;;5.06;82.91;101957.31;5091738;28;20048;-87
2021/03/02 00:14:52;;;;;;;19.85;11.88;;;;;;;5.05;83.07;101956.44;5122612;27;20054;-86
2021/03/02 00:17:33;;;;;;;19.50;12.15;;;;;;;5.01;82.78;101952.06;5101025;28;20046;-84
2021/03/02 00:20:04;;;;;;;19.05;11.43;;;;;;;5.03;82.49;101952.97;5082727;28;20048;-86
2021/03/02 00:22:34;;;;;;;17.02;11.02;;;;;;;4.98;83.33;101945.94;5101133;28;20044;-86
2021/03/02 00:25:07;;;;;;;17.58;11.18;;;;;;;4.96;82.72;101953.81;5091588;28;20105;-86
2021/03/02 00:27:35;;;;;;;20.98;11.75;;;;;;;4.93;83.12;101957.31;5095051;28;20146;-86
2021/03/02 00:30:06;;;;;;;18.23;11.43;;;;;;;4.92;82.60;101959.94;5085795;28;20060;-86
2021/03/02 00:32:32;;;;;;;;;;;;;;;4.89;82.81;101954.66;5081605;28;20101;-85
2021/03/02 00:34:59;;;;;;;19.20;11.95;;;;;;;4.87;82.98;101954.69;5090398;28;19918;-84
2021/03/02 00:37:26;;;;;;;19.08;11.65;;;;;;;4.84;82.99;101956.44;5085267;28;20040;-86
2021/03/02 00:39:53;;;;;;;22.77;12.02;;;;;;;4.77;83.08;101946.78;5109916;28;20039;-85
2021/03/02 00:42:22;;;;;;;19.48;11.88;;;;;;;4.77;83.18;101952.91;5104189;28;20047;-84
2021/03/02 00:44:53;;;;;;;20.33;12.48;;;;;;;4.78;83.32;101956.41;5090601;28;20052;-85
2021/03/02 00:47:26;;;;;;;20.25;12.07;;;;;;;4.75;83.03;101961.66;5101484;28;20047;-86
2021/03/02 00:49:55;;;;;;;18.13;11.57;;;;;;;4.70;82.76;101955.53;5097133;28;20052;-85
2021/03/02 00:52:21;;;;;;;18.08;12.20;;;;;;;4.68;83.45;101959.91;5110536;28;20072;-86
2021/03/02 00:54:50;;;;;;;18.35;11.70;;;;;;;4.62;83.12;101963.38;5108636;28;20040;-85
2021/03/02 00:57:17;;;;;;;18.17;12.32;;;;;;;4.57;83.34;101958.09;5103102;28;20163;-85
2021/03/02 00:59:43;;;;;;;19.52;12.52;;;;;;;4.56;83.69;101960.75;5108658;28;20037;-84
2021/03/02 01:02:10;;;;;;;19.38;12.32;;;;;;;4.53;83.39;101961.63;5104668;28;20104;-85
2021/03/02 01:04:36;;;;;;;22.42;12.75;;;;;;;4.49;83.77;101959.84;5085644;28;20724;-85
2021/03/02 01:07:04;;;;;;;21.98;12.68;;;;;;;4.45;84.49;101954.59;5093866;28;20559;-86
2021/03/02 01:09:32;;;;;;;20.67;12.48;;;;;;;4.43;84.30;101962.44;5098101;28;20052;-84
2021/03/02 01:12:02;;;;;;;18.27;11.95;;;;;;;4.37;84.67;101959.81;5098972;28;20060;-85
2021/03/02 01:14:29;;;;;;;19.33;12.20;;;;;;;4.30;84.60;101954.53;5086530;28;20049;-84
2021/03/02 01:16:59;;;;;;;19.48;12.27;;;;;;;4.27;85.37;101960.63;5085119;28;20055;-85
2021/03/02 01:19:25;;;;;;;20.42;12.52;;;;;;;4.25;84.74;101956.28;5093461;28;20424;-85
2021/03/02 01:21:52;;;;;;;20.25;12.75;;;;;;;4.26;85.48;101960.63;5101005;28;20048;-85
2021/03/02 01:24:20;;;;;;;19.38;11.98;;;;;;;4.27;85.40;101955.38;5080957;28;20320;-85
2021/03/02 01:26:47;;;;;;;20.92;12.40;;;;;;;4.30;85.41;101958.03;5113261;28;20048;-85
2021/03/02 01:29:13;;;;;;;19.13;12.02;;;;;;;4.24;85.17;101947.53;5108118;28;20624;-85
2021/03/02 01:31:40;;;;;;;18.70;11.60;;;;;;;4.32;85.23;101956.28;5079426;28;20044;-86
2021/03/02 01:34:06;;;;;;;19.92;12.25;;;;;;;4.32;85.14;101958.03;5104465;28;20051;-86
2021/03/02 01:36:33;;;;;;;21.45;12.52;;;;;;;4.29;85.16;101961.53;5086592;28;20052;-85
2021/03/02 01:39:00;;;;;;;20.80;13.00;;;;;;;4.25;85.18;101962.38;5093295;28;20116;-85
2021/03/02 01:41:27;;;;;;;20.55;12.82;;;;;;;4.24;85.02;101960.66;5099122;28;20036;-84
2021/03/02 01:43:53;;;;;;;21.42;13.10;;;;;;;4.24;85.00;101963.28;5100669;28;20056;-84
2021/03/02 01:46:20;;;;;;;20.88;13.43;;;;;;;4.20;84.96;101958.88;5109238;28;20078;-84
2021/03/02 01:48:46;;;;;;;22.63;13.95;;;;;;;4.15;85.34;101961.47;5114793;28;20048;-85
2021/03/02 01:51:13;;;;;;;23.98;13.85;;;;;;;4.14;84.95;101961.47;5110032;28;20123;-86
2021/03/02 01:53:40;;;;;;;21.00;13.25;;;;;;;4.09;85.43;101957.97;5115929;28;20052;-84
2021/03/02 01:56:06;;;;;;;23.42;13.70;;;;;;;4.07;85.42;101957.09;5118430;28;20097;-83
2021/03/02 01:58:33;;;;;;;20.92;13.68;;;;;;;4.03;85.70;101961.41;5113930;28;20043;-85
2021/03/02 02:01:08;;;;;;;22.20;13.10;;;;;;;4.04;85.53;101957.06;5093836;28;20051;-85
2021/03/02 02:03:43;;;;;;;23.73;13.52;;;;;;;4.03;86.13;101961.41;5097682;28;20063;-84
2021/03/02 02:06:36;;;;;;;20.90;12.95;;;;;;;4.04;85.65;101954.44;5130680;28;20039;-85
2021/03/02 02:09:23;;;;;;;24.40;13.55;;;;;;;3.99;86.17;101950.91;5104429;28;20044;-85
2021/03/02 02:12:05;;;;;;;20.83;13.18;;;;;;;3.92;85.76;101943.91;5109985;28;20028;-83
2021/03/02 02:14:57;;;;;;;21.50;12.82;;;;;;;3.90;85.73;101958.75;5112780;28;20052;-84
2021/03/02 02:17:49;;;;;;;21.98;12.60;;;;;;;3.91;85.80;101957.88;5110285;28;20047;-83
2021/03/02 02:20:36;;;;;;;21.02;13.05;;;;;;;3.88;86.31;101961.34;5095154;28;20122;-81
2021/03/02 02:23:40;;;;;;;23.05;13.68;;;;;;;3.87;86.61;101957.84;5109499;28;20125;-82
2021/03/02 02:26:48;;;;;;;22.38;13.60;;;;;;;3.82;85.75;101953.44;5085366;28;20063;-82
2021/03/02 02:29:19;;;;;;;22.38;12.68;;;;;;;3.80;86.06;101958.66;5107559;28;20040;-82
2021/03/02 02:31:50;;;;;;;20.30;12.52;;;;;;;3.76;86.32;101951.69;5079759;28;20048;-83
2021/03/02 02:34:21;;;;;;;22.17;13.23;;;;;;;3.68;86.66;101957.72;5083615;28;20044;-83
2021/03/02 02:36:50;;;;;;;22.92;13.93;;;;;;;3.69;86.61;101954.25;5092436;28;20089;-83
2021/03/02 02:39:22;;;;;;;20.50;13.48;;;;;;;3.66;86.44;101960.34;5105823;28;20044;-85
2021/03/02 02:41:53;;;;;;;21.67;13.57;;;;;;;3.63;87.26;101952.44;5103548;28;21982;-83
2021/03/02 02:44:24;;;;;;;20.80;14.05;;;;;;;3.61;87.50;101963.81;5123322;28;20040;-87
2021/03/02 02:47:05;;;;;;;21.73;13.55;;;;;;;3.55;87.53;101954.16;5098274;28;20427;-84
2021/03/02 02:49:34;;;;;;;24.38;13.60;;;;;;;3.56;87.31;101953.28;5093700;28;20056;-82
2021/03/02 02:52:01;;;;;;;24.15;14.25;;;;;;;3.52;87.10;101951.50;5091725;28;20048;-84
2021/03/02 02:54:30;;;;;;;23.95;13.75;;;;;;;3.51;86.38;101960.22;5095303;28;20061;-85
2021/03/02 02:56:57;;;;;;;24.88;14.15;;;;;;;3.41;86.96;101948.84;5094200;28;20048;-85
2021/03/02 02:59:27;;;;;;;22.80;14.00;;;;;;;3.43;87.15;101954.09;5105505;28;20060;-84
2021/03/02 03:01:57;;;;;;;22.23;13.73;;;;;;;3.40;86.87;101956.69;5065409;28;20392;-84
2021/03/02 03:04:42;;;;;;;22.33;13.77;;;;;;;3.36;87.80;101957.50;5095643;28;20063;-86
2021/03/02 03:07:18;;;;;;;23.00;13.48;;;;;;;3.30;87.57;101947.88;5082126;28;20484;-84
2021/03/02 03:09:45;;;;;;;23.75;14.38;;;;;;;3.30;87.63;101955.75;5090831;28;20048;-85
2021/03/02 03:12:15;;;;;;;24.10;14.10;;;;;;;3.27;87.92;101954.84;5080826;28;20044;-84
2021/03/02 03:15:01;;;;;;;22.88;13.52;;;;;;;3.26;87.84;101953.97;5096500;28;20068;-84
2021/03/02 03:17:35;;;;;;;23.25;14.10;;;;;;;3.26;88.29;101960.94;5095984;28;20044;-85
2021/03/02 03:20:07;;;;;;;26.30;13.80;;;;;;;3.25;88.13;101954.81;5071651;28;20048;-84
2021/03/02 03:22:34;;;;;;;24.45;14.05;;;;;;;3.23;87.95;101948.69;5095633;28;20048;-83
2021/03/02 03:25:03;;;;;;;25.95;13.70;;;;;;;3.24;88.20;101960.91;5075632;28;20062;-83
2021/03/02 03:27:32;;;;;;;23.08;13.30;;;;;;;3.23;87.97;101948.69;5105869;28;20036;-85
2021/03/02 03:30:01;;;;;;;23.50;13.75;;;;;;;3.24;87.91;101954.81;5105434;28;20044;-83
2021/03/02 03:32:29;;;;;;;24.90;13.82;;;;;;;3.17;87.84;101949.50;5103188;28;20048;-86
2021/03/02 03:34:59;;;;;;;23.83;13.38;;;;;;;3.23;88.08;101955.66;5107135;28;20051;-85
2021/03/02 03:37:29;;;;;;;26.40;14.65;;;;;;;3.22;87.81;101948.69;5107561;28;20090;-86
2021/03/02 03:39:56;;;;;;;26.05;13.55;;;;;;;3.23;88.13;101956.53;5108889;28;20040;-85
2021/03/02 03:42:23;;;;;;;23.83;13.00;;;;;;;3.23;87.74;101947.81;5109981;28;20092;-86
2021/03/02 03:45:05;;;;;;;25.43;13.93;;;;;;;3.25;87.91;101959.19;5103828;28;20089;-87
2021/03/02 03:47:31;;;;;;;29.35;13.95;;;;;;;3.24;87.80;101958.31;5107435;28;20475;-84
2021/03/02 03:49:58;;;;;;;24.33;14.65;;;;;;;3.25;87.63;101969.66;5096224;28;20070;-84
2021/03/02 03:52:25;;;;;;;25.90;13.80;;;;;;;3.23;87.47;101974.00;5089206;28;20074;-84
2021/03/02 03:54:54;;;;;;;24.10;13.80;;;;;;;3.18;87.64;101966.09;5087045;28;20048;-84
2021/03/02 03:57:24;;;;;;;24.25;13.50;;;;;;;3.18;88.00;101977.44;5093325;28;20057;-85
2021/03/02 03:59:57;;;;;;;24.02;13.45;;;;;;;3.13;87.40;101966.06;5096058;28;20044;-85
2021/03/02 04:02:26;;;;;;;25.90;14.20;;;;;;;3.16;87.78;101968.69;5087868;28;20047;-84
2021/03/02 04:04:57;;;;;;;23.90;13.80;;;;;;;3.14;86.85;101978.31;5108433;28;20036;-84
2021/03/02 04:07:27;;;;;;;24.33;13.95;;;;;;;3.14;87.03;101980.03;5110218;28;20060;-86
2021/03/02 04:09:58;;;;;;;22.02;13.30;;;;;;;3.07;86.88;101975.59;5115630;28;20044;-85
2021/03/02 04:12:24;;;;;;;23.25;13.30;;;;;;;3.00;86.91;101977.28;5093821;28;20058;-83
2021/03/02 04:14:53;;;;;;;26.85;14.95;;;;;;;2.87;86.56;101969.28;5103359;28;20036;-83
2021/03/02 04:17:21;;;;;;;24.38;13.75;;;;;;;2.83;86.81;101984.13;5074736;28;20407;-84
2021/03/02 04:19:47;;;;;;;26.23;14.10;;;;;;;2.76;87.10;101982.28;5102702;28;20080;-84
2021/03/02 04:22:13;;;;;;;24.48;13.70;;;;;;;2.71;87.33;101977.00;5078200;28;20317;-85
2021/03/02 04:24:42;;;;;;;25.05;14.98;;;;;;;2.69;87.85;101975.22;5103083;28;20052;-83
2021/03/02 04:27:11;;;;;;;26.60;14.10;;;;;;;2.68;87.40;101979.56;5089709;28;20045;-83
2021/03/02 04:29:38;;;;;;;23.55;13.85;;;;;;;2.66;87.83;101978.72;5085708;28;20092;-84
2021/03/02 04:32:04;;;;;;;27.30;14.45;;;;;;;2.62;87.53;101969.06;5095427;28;20055;-83
2021/03/02 04:34:31;;;;;;;24.08;14.02;;;;;;;2.58;88.28;101976.84;5090609;28;20044;-84
2021/03/02 04:36:59;;;;;;;27.10;14.73;;;;;;;2.56;88.44;101975.94;5094917;28;20052;-85
2021/03/02 04:39:25;;;;;;;28.23;15.35;;;;;;;2.51;88.13;101961.97;5079292;28;20044;-86
2021/03/02 04:41:52;;;;;;;23.98;13.40;;;;;;;2.53;88.15;101974.19;5096940;28;20159;-84
2021/03/02 04:44:20;;;;;;;24.63;14.00;;;;;;;2.54;88.36;101975.06;5081259;28;20044;-86
2021/03/02 04:46:46;;;;;;;25.63;14.75;;;;;;;2.52;88.23;101976.81;5091429;28;20058;-86
2021/03/02 04:49:20;;;;;;;25.90;14.57;;;;;;;2.49;88.51;101984.59;5076513;28;20131;-84
2021/03/02 04:51:52;;;;;;;27.60;14.32;;;;;;;2.49;88.04;101980.25;5101175;28;20079;-85
2021/03/02 04:54:19;;;;;;;25.73;14.77;;;;;;;2.42;88.47;101979.28;5079662;28;20510;-85
2021/03/02 04:56:46;;;;;;;27.90;15.75;;;;;;;2.36;88.58;101975.75;5071709;28;20055;-85
2021/03/02 04:59:12;;;;;;;29.98;15.57;;;;;;;2.29;88.69;101981.75;5086530;28;20051;-85
2021/03/02 05:01:39;;;;;;;28.63;15.77;;;;;;;2.20;89.25;101973.81;5095576;28;20147;-85
2021/03/02 05:04:06;;;;;;;29.27;14.73;;;;;;;2.18;89.48;101971.19;5099692;28;20044;-86
2021/03/02 05:06:32;;;;;;;29.10;15.38;;;;;;;2.20;90.03;101973.81;5111585;28;20081;-85
2021/03/02 05:09:00;;;;;;;25.08;14.50;;;;;;;2.24;89.88;101976.47;5101556;28;20059;-84
2021/03/02 05:11:27;;;;;;;31.02;15.13;;;;;;;2.27;89.79;101976.50;5105330;28;20028;-85
2021/03/02 05:13:54;;;;;;;26.67;14.75;;;;;;;2.23;89.47;101974.69;5107419;28;20051;-85
2021/03/02 05:16:20;;;;;;;29.40;15.82;;;;;;;2.24;89.44;101981.69;5104601;28;20044;-84
2021/03/02 05:18:49;;;;;;;29.60;15.00;;;;;;;2.19;89.50;101970.31;5082661;28;20120;-86
2021/03/02 05:21:15;;;;;;;26.58;14.93;;;;;;;2.21;89.49;101967.69;5115182;27;20039;-85
2021/03/02 05:23:43;;;;;;;24.60;14.02;;;;;;;2.22;89.72;101965.09;5091636;28;20029;-84
2021/03/02 05:26:09;;;;;;;27.77;15.32;;;;;;;2.21;89.53;101967.69;5108788;28;20048;-85
2021/03/02 05:28:35;;;;;;;24.88;14.73;;;;;;;2.20;89.56;101965.97;5108104;28;20040;-84
2021/03/02 05:31:03;;;;;;;26.10;13.73;;;;;;;2.22;89.25;101979.91;5126269;28;20048;-85
2021/03/02 05:33:31;;;;;;;25.00;14.48;;;;;;;2.18;88.99;101978.13;5097719;28;20052;-84
2021/03/02 05:36:03;;;;;;;26.23;14.82;;;;;;;2.17;88.84;101985.09;5118404;28;20036;-84
2021/03/02 05:38:30;;;;;;;26.17;15.30;;;;;;;2.14;89.00;101979.81;5118596;28;20052;-85
2021/03/02 05:40:56;;;;;;;27.60;14.00;;;;;;;2.16;89.00;101988.56;5120354;28;20054;-85
2021/03/02 05:43:23;;;;;;;24.27;14.30;;;;;;;2.14;89.03;101987.66;5096300;28;20498;-86
2021/03/02 05:45:56;;;;;;;26.13;14.90;;;;;;;2.14;88.69;101999.84;5079409;28;20064;-85
2021/03/02 05:48:41;;;;;;;27.17;13.95;;;;;;;2.12;88.98;101992.00;5089135;28;20052;-86
2021/03/02 05:51:12;;;;;;;26.92;14.88;;;;;;;2.13;88.53;101990.25;5105727;28;20031;-83
2021/03/02 05:53:40;;;;;;;24.23;13.00;;;;;;;2.13;88.71;102000.72;5087003;28;20098;-83
2021/03/02 05:56:08;;;;;;;25.58;13.60;;;;;;;2.14;89.07;101998.13;5085507;28;20054;-82
2021/03/02 05:58:37;;;;;;;25.38;13.80;;;;;;;2.12;88.70;101997.22;5112486;28;20433;-82
2021/03/02 06:01:04;;;;;;;24.33;13.93;;;;;;;2.13;88.69;101993.75;5118018;28;20050;-86
2021/03/02 06:03:37;;;;;;;26.98;14.48;;;;;;;2.19;89.34;102001.69;5124685;28;20050;-83
2021/03/02 06:06:05;;;;;;;27.73;14.55;;;;;;;2.21;88.70;102004.28;5100842;28;20054;-83
2021/03/02 06:08:32;;;;;;;25.15;13.82;;;;;;;2.24;89.10;102002.59;5121676;27;20032;-85
2021/03/02 06:11:25;;;;;;;25.75;14.82;;;;;;;2.30;88.90;102000.06;5093391;28;20047;-84
2021/03/02 06:13:52;;;;;;;23.58;13.27;;;;;;;2.34;88.11;102012.31;5117607;28;20062;-84
2021/03/02 06:16:19;;;;;;;26.77;14.98;;;;;;;2.34;87.93;102009.72;5106380;28;20033;-83
2021/03/02 06:18:53;;;;;;;25.90;13.10;;;;;;;2.36;88.27;102007.97;5116573;28;20104;-82
2021/03/02 06:21:21;;;;;;;25.23;13.93;;;;;;;2.37;87.97;102011.47;5096531;28;20075;-83
2021/03/02 06:23:53;;;;;;;24.77;14.10;;;;;;;2.38;87.52;102008.88;5111491;28;20419;-84
2021/03/02 06:26:26;;;;;;;28.02;15.05;;;;;;;2.36;87.50;102014.97;5110471;28;20032;-84
2021/03/02 06:29:02;;;;;;;26.73;14.93;;;;;;;2.37;87.29;102009.72;5090076;28;20035;-84
2021/03/02 06:31:30;;;;;;;28.05;14.13;;;;;;;2.41;87.30;102016.75;5097423;28;20058;-84
2021/03/02 06:34:21;;;;;;;25.30;13.90;;;;;;;2.45;87.65;102015.94;5103899;28;20071;-84
2021/03/02 06:36:54;;;;;;;25.92;14.02;;;;;;;2.44;87.30;102022.03;5089056;28;20127;-84
2021/03/02 06:39:28;;;;;;;25.27;13.65;;;;;;;2.47;87.34;102022.06;5096144;28;20107;-84
2021/03/02 06:42:20;;;;;;;29.77;15.23;;;;;;;2.51;86.65;102017.75;5091005;28;20063;-84
2021/03/02 06:44:52;;;;;;;25.17;14.40;;;;;;;2.55;87.28;102023.88;5107850;28;20044;-84
2021/03/02 06:47:37;;;;;;;;;;;;;;;2.58;86.91;102023.91;5103017;28;20086;-85
2021/03/02 06:50:11;;;;;;;26.73;13.60;;;;;;;2.60;87.13;102016.97;5061118;28;19932;-85
2021/03/02 06:52:40;;;;;;;25.48;14.23;;;;;;;2.67;86.60;102030.16;5095979;28;20100;-85
2021/03/02 06:55:28;;;;;;;27.35;14.13;;;;;;;2.73;86.43;102027.59;5079952;28;20069;-84
2021/03/02 06:58:17;;;;;;;23.98;13.73;;;;;;;2.81;86.49;102022.47;5076583;28;20064;-85
2021/03/02 07:00:56;;;;;;;27.33;14.27;;;;;;;2.85;86.34;102032.06;5083276;28;20135;-84
2021/03/02 07:03:36;;;;;;;28.35;14.90;;;;;;;2.92;86.98;102018.22;5070975;28;20059;-85
2021/03/02 07:06:08;;;;;;;24.75;13.48;;;;;;;3.09;87.75;102027.09;5077019;28;20048;-85
2021/03/02 07:08:36;;;;;;;24.30;13.50;;;;;;;3.20;86.19;102024.56;5076083;28;20113;-85
2021/03/02 07:11:04;;;;;;;27.60;14.70;;;;;;;3.31;86.16;102030.78;5094854;28;20052;-84
2021/03/02 07:13:36;;;;;;;25.38;14.07;;;;;;;3.46;84.44;102020.44;5086718;28;20123;-84
2021/03/02 07:16:06;;;;;;;25.45;14.20;;;;;;;3.60;83.92;102023.19;5064103;28;20048;-84
2021/03/02 07:18:41;;;;;;;25.80;12.95;;;;;;;3.81;83.21;102025.06;5080136;28;20044;-83
2021/03/02 07:21:08;;;;;;;22.63;12.00;;;;;;;4.03;82.29;102023.47;5097851;28;20055;-83
2021/03/02 07:23:37;;;;;;;21.65;12.25;;;;;;;4.38;80.97;102026.25;5099225;28;20059;-83
2021/03/02 07:26:06;;;;;;;24.23;12.27;;;;;;;4.76;79.92;102029.88;5104757;28;20147;-83
2021/03/02 07:28:35;;;;;;;20.45;12.23;;;;;;;5.19;77.51;102023.00;5095234;28;20044;-83
2021/03/02 07:31:03;;;;;;;21.13;12.43;;;;;;;5.57;75.03;102028.25;5088880;28;20624;-83
2021/03/02 07:33:31;;;;;;;21.83;12.13;;;;;;;5.85;74.43;102034.34;5105824;28;20045;-83
2021/03/02 07:36:01;;;;;;;;;;;;;;;6.33;72.47;102025.47;5105203;28;20154;-84
2021/03/02 07:38:29;;;;;;;21.00;11.70;;;;;;;6.92;71.02;102031.38;5107600;28;19908;-84
2021/03/02 07:40:56;;;;;;;20.63;11.27;;;;;;;7.60;67.52;102037.88;5124331;27;20056;-85
2021/03/02 07:43:35;;;;;;;17.55;10.38;;;;;;;8.23;63.89;102040.78;5099168;28;20040;-85
2021/03/02 07:46:31;;;;;;;16.52;10.43;;;;;;;8.64;62.57;102048.25;5105513;28;20044;-84
2021/03/02 07:49:20;;;;;;;15.80;10.63;;;;;;;8.76;60.37;102038.41;5084035;28;20294;-85
2021/03/02 07:52:08;;;;;;;16.08;10.05;;;;;;;8.83;61.02;102048.84;5076347;28;20044;-86
2021/03/02 07:54:37;;;;;;;19.27;10.18;;;;;;;9.01;60.98;102045.97;5105841;28;20048;-84
2021/03/02 07:57:13;;;;;;;18.55;10.35;;;;;;;9.05;60.48;102052.97;5107236;28;20108;-84
2021/03/02 08:00:20;;;;;;;17.83;9.98;;;;;;;8.97;59.98;102041.66;5091491;28;20556;-85
2021/03/02 08:03:27;;;;;;;18.02;10.88;;;;;;;9.06;59.60;102049.44;5099481;28;20040;-86
2021/03/02 08:05:55;;;;;;;17.80;10.73;;;;;;;8.93;60.13;102048.75;5102639;28;20047;-84
2021/03/02 08:08:28;;;;;;;14.55;10.52;;;;;;;8.81;61.01;102058.59;5106400;28;20046;-87
2021/03/02 08:11:22;;;;;;;16.15;10.25;;;;;;;8.74;60.71;102060.44;5116566;28;20048;-85
2021/03/02 08:13:49;;;;;;;16.13;9.95;;;;;;;8.77;60.63;102050.72;5119945;28;20048;-85
2021/03/02 08:16:54;;;;;;;16.55;9.52;;;;;;;8.89;59.89;102054.06;5104851;28;20043;-84
2021/03/02 08:19:41;;;;;;;15.02;9.75;;;;;;;8.86;60.35;102059.41;5108476;28;20066;-86
2021/03/02 08:22:17;;;;;;;17.85;10.40;;;;;;;8.87;59.21;102063.78;5107030;28;20436;-87
2021/03/02 08:24:59;;;;;;;17.65;9.77;;;;;;;8.91;59.29;102055.81;5078140;28;20063;-85
2021/03/02 08:27:40;;;;;;;17.20;10.70;;;;;;;9.27;59.91;102062.34;5091997;28;20075;-86
2021/03/02 08:30:12;;;;;;;17.98;10.50;;;;;;;9.66;58.53;102066.09;5090346;28;20040;-84
2021/03/02 08:32:44;;;;;;;18.60;10.63;;;;;;;9.83;56.70;102055.25;5109931;28;20039;-85
2021/03/02 08:35:23;;;;;;;17.08;10.20;;;;;;;10.00;56.50;102060.22;5086339;28;20044;-85
2021/03/02 08:37:56;;;;;;;17.60;10.52;;;;;;;10.06;56.13;102062.78;5094840;28;20070;-85
2021/03/02 08:40:31;;;;;;;16.00;10.10;;;;;;;10.07;56.09;102065.38;5092327;28;20055;-86
2021/03/02 08:43:20;;;;;;;15.18;10.50;;;;;;;9.95;55.68;102062.09;5085033;28;20067;-86
2021/03/02 08:45:54;;;;;;;19.88;10.48;;;;;;;9.50;56.94;102059.31;5083782;28;20064;-85
2021/03/02 08:48:41;;;;;;;16.88;10.48;;;;;;;9.05;58.53;102068.81;5093068;28;20067;-86
2021/03/02 08:51:10;;;;;;;17.05;10.68;;;;;;;8.72;59.69;102071.00;5083312;28;20113;-86
2021/03/02 08:53:43;;;;;;;16.23;11.13;;;;;;;8.41;60.42;102070.50;5077383;28;20060;-85
2021/03/02 08:56:14;;;;;;;20.77;11.30;;;;;;;8.16;61.83;102073.41;5072116;28;20060;-85
2021/03/02 08:58:44;;;;;;;17.77;11.05;;;;;;;7.87;62.99;102071.91;5072755;28;20044;-85
2021/03/02 09:01:35;;;;;;;18.88;10.60;;;;;;;7.75;64.19;102066.75;5111603;28;20145;-86
2021/03/02 09:04:17;;;;;;;20.08;11.50;;;;;;;7.68;64.14;102057.16;5109901;28;20048;-84
2021/03/02 09:06:50;;;;;;;21.63;11.48;;;;;;;7.76;64.71;102071.13;5104537;28;20059;-85
2021/03/02 09:09:20;;;;;;;17.98;11.82;;;;;;;7.84;65.55;102066.69;5112023;28;20135;-85
2021/03/02 09:11:55;;;;;;;19.33;11.45;;;;;;;7.91;65.66;102078.91;5115862;28;20023;-83
2021/03/02 09:14:33;;;;;;;22.35;13.05;;;;;;;7.88;65.16;102057.84;5105272;28;20044;-83
2021/03/02 09:17:04;;;;;;;21.35;12.43;;;;;;;7.97;65.29;102064.81;5097157;28;20048;-86
2021/03/02 09:19:41;;;;;;;20.17;12.10;;;;;;;8.05;65.21;102062.94;5093270;28;20455;-83
2021/03/02 09:22:16;;;;;;;20.40;11.75;;;;;;;8.07;64.95;102075.25;5075303;28;20340;-85
2021/03/02 09:24:53;;;;;;;22.92;12.10;;;;;;;8.13;64.71;102073.44;5087627;28;20116;-85
2021/03/02 09:27:21;;;;;;;19.95;11.70;;;;;;;8.23;63.97;102070.69;5104872;28;20047;-85
2021/03/02 09:29:55;;;;;;;21.17;12.32;;;;;;;8.30;64.27;102068.84;5109298;28;20116;-84
2021/03/02 09:32:43;;;;;;;21.15;11.68;;;;;;;8.37;63.65;102066.16;5115267;28;20123;-84
2021/03/02 09:35:20;;;;;;;21.30;11.70;;;;;;;8.48;63.09;102071.31;5099561;28;20044;-83
2021/03/02 09:37:47;;;;;;;17.48;10.82;;;;;;;8.53;62.41;102064.22;5108375;28;20095;-86
2021/03/02 09:40:15;;;;;;;20.48;11.90;;;;;;;8.61;60.94;102075.56;5112770;27;20031;-84
2021/03/02 09:42:53;;;;;;;19.67;10.85;;;;;;;8.70;61.20;102067.50;5117850;28;20067;-85
2021/03/02 09:45:22;;;;;;;;;;;;;;;8.87;60.44;102064.66;5096268;28;20032;-84
2021/03/02 09:47:58;;;;;;;20.25;11.27;;;;;;;9.01;59.38;102067.97;5112272;28;19987;-83
2021/03/02 09:50:39;;;;;;;21.10;11.18;;;;;;;9.16;58.63;102072.19;5096683;28;20052;-84
2021/03/02 09:53:17;;;;;;;21.10;11.40;;;;;;;9.33;57.73;102069.28;5097252;28;20055;-84
2021/03/02 09:55:46;;;;;;;23.35;12.85;;;;;;;9.33;57.61;102074.56;5082620;28;20040;-84
2021/03/02 09:58:20;;;;;;;19.65;11.77;;;;;;;9.35;57.63;102064.84;5080634;28;20510;-85
2021/03/02 10:00:59;;;;;;;22.85;12.77;;;;;;;9.42;57.47;102064.75;5095087;28;20044;-85
2021/03/02 10:03:36;;;;;;;19.98;11.75;;;;;;;9.49;57.28;102062.84;5096082;28;20048;-83
2021/03/02 10:06:06;;;;;;;22.02;11.82;;;;;;;9.61;57.40;102067.06;5093752;28;20101;-84
2021/03/02 10:08:41;;;;;;;21.42;11.73;;;;;;;9.66;56.50;102071.41;5081510;28;20086;-85
2021/03/02 10:11:12;;;;;;;18.40;11.25;;;;;;;9.71;56.79;102071.31;5095716;28;20050;-84
2021/03/02 10:13:47;;;;;;;18.85;11.18;;;;;;;9.78;56.54;102068.53;5095711;28;20044;-84
2021/03/02 10:16:26;;;;;;;24.98;12.20;;;;;;;9.86;56.15;102068.41;5076233;28;20045;-86
2021/03/02 10:19:01;;;;;;;20.73;11.98;;;;;;;9.91;56.76;102068.34;5092147;28;20056;-85
2021/03/02 10:21:29;;;;;;;18.55;11.82;;;;;;;10.01;55.69;102065.50;5095453;28;20058;-85
2021/03/02 10:24:00;;;;;;;19.15;11.73;;;;;;;10.06;55.35;102074.25;5096820;28;20058;-86
2021/03/02 10:26:33;;;;;;;19.45;11.27;;;;;;;10.20;55.50;102079.31;5100669;28;20059;-85
2021/03/02 10:29:00;;;;;;;21.25;11.35;;;;;;;10.31;54.89;102069.38;5072800;28;20069;-84
2021/03/02 10:31:28;;;;;;;21.10;11.38;;;;;;;10.30;54.27;102064.13;5097497;28;20044;-85
2021/03/02 10:34:00;;;;;;;20.83;11.18;;;;;;;10.36;54.91;102062.22;5088462;28;20060;-85
2021/03/02 10:36:35;;;;;;;21.25;11.55;;;;;;;10.41;54.63;102062.13;5089211;28;20048;-85
2021/03/02 10:39:10;;;;;;;17.75;11.50;;;;;;;10.52;54.15;102063.69;5095915;28;20093;-86
2021/03/02 10:41:43;;;;;;;20.38;11.10;;;;;;;10.62;54.03;102061.69;5078430;28;20035;-85
2021/03/02 10:44:13;;;;;;;19.33;11.98;;;;;;;10.71;53.62;102063.28;5091759;28;20044;-86
2021/03/02 10:47:09;;;;;;;21.35;11.95;;;;;;;10.79;53.51;102048.09;5102560;28;20044;-85
2021/03/02 10:49:35;;;;;;;20.77;11.52;;;;;;;10.95;53.37;102057.47;5084749;28;20044;-84
2021/03/02 10:52:08;;;;;;;19.05;11.20;;;;;;;11.04;52.56;102056.38;5100253;28;20071;-86
2021/03/02 10:54:37;;;;;;;22.13;11.10;;;;;;;11.13;52.41;102061.47;5101907;28;20054;-84
2021/03/02 10:57:04;;;;;;;20.45;11.85;;;;;;;11.25;52.07;102056.75;5084949;28;20052;-79
2021/03/02 10:59:31;;;;;;;18.27;11.10;;;;;;;11.31;51.98;102052.22;5085337;28;20048;-86
2021/03/02 11:01:58;;;;;;;19.45;11.48;;;;;;;11.43;51.30;102052.81;5099033;28;20048;-84
2021/03/02 11:04:27;;;;;;;17.45;11.10;;;;;;;11.63;51.22;102054.97;5075993;28;20043;-84
2021/03/02 11:06:53;;;;;;;20.70;11.73;;;;;;;11.76;50.59;102055.56;5087781;28;20051;-83
2021/03/02 11:09:21;;;;;;;15.85;10.35;;;;;;;11.83;50.52;102054.47;5101566;28;20086;-83
2021/03/02 11:11:48;;;;;;;17.27;11.18;;;;;;;11.84;50.25;102061.53;5103766;28;20033;-83
2021/03/02 11:14:14;;;;;;;18.65;11.15;;;;;;;11.74;50.18;102044.94;5092907;28;20044;-81
2021/03/02 11:16:43;;;;;;;17.67;11.20;;;;;;;11.67;50.46;102045.13;5104730;28;20145;-82
2021/03/02 11:19:11;;;;;;;19.92;10.80;;;;;;;11.66;50.56;102043.38;5112056;28;20044;-84
2021/03/02 11:21:37;;;;;;;20.38;11.52;;;;;;;11.74;50.73;102042.31;5089602;28;20063;-86
2021/03/02 11:24:04;;;;;;;18.10;10.98;;;;;;;11.82;50.20;102036.81;5097739;28;20075;-85
2021/03/02 11:26:31;;;;;;;15.95;10.52;;;;;;;11.98;50.25;102030.19;5091151;28;20040;-86
2021/03/02 11:29:00;;;;;;;18.00;10.80;;;;;;;12.14;49.45;102038.59;5109035;28;20045;-88
2021/03/02 11:31:27;;;;;;;17.83;11.23;;;;;;;12.21;49.52;102038.41;5104728;28;20056;-85
2021/03/02 11:33:54;;;;;;;17.98;11.18;;;;;;;12.32;48.86;102032.78;5105304;28;20051;-86
2021/03/02 11:36:21;;;;;;;20.52;11.30;;;;;;;12.40;48.74;102029.94;5092023;28;20216;-87
2021/03/02 11:38:49;;;;;;;17.45;11.23;;;;;;;12.42;48.64;102022.78;5097044;28;20073;-86
2021/03/02 11:41:25;;;;;;;19.50;10.57;;;;;;;12.55;48.79;102016.19;5114582;28;20068;-85